sensor_id;sensor_type;location;lat;lon;timestamp;temperature;humidity
20839;DHT22;10580;51.092;6.828;2022-08-19T00:00:28;18.80;99.90
20839;DHT22;10580;51.092;6.828;2022-08-19T00:02:54;18.80;99.90
20839;DHT22;10580;51.092;6.828;2022-08-19T00:05:21;18.80;99.90
20839;DHT22;10580;51.092;6.828;2022-08-19T00:11:54;18.80;99.90
20839;DHT22;10580;51.092;6.828;2022-08-19T00:18:07;18.80;99.90
20839;DHT22;10580;51.092;6.828;2022-08-19T00:21:05;18.70;99.90
20839;DHT22;10580;51.092;6.828;2022-08-19T00:24:05;18.70;99.90
20839;DHT22;10580;51.092;6.828;2022-08-19T00:26:43;18.70;99.90
20839;DHT22;10580;51.092;6.828;2022-08-19T00:29:44;18.70;99.90
20839;DHT22;10580;51.092;6.828;2022-08-19T00:43:08;18.60;99.90
20839;DHT22;10580;51.092;6.828;2022-08-19T00:52:29;18.50;99.90
20839;DHT22;10580;51.092;6.828;2022-08-19T00:55:21;18.40;99.90
20839;DHT22;10580;51.092;6.828;2022-08-19T00:58:24;18.40;99.90
20839;DHT22;10580;51.092;6.828;2022-08-19T01:01:17;18.40;99.90
20839;DHT22;10580;51.092;6.828;2022-08-19T01:10:45;18.20;99.90
20839;DHT22;10580;51.092;6.828;2022-08-19T01:13:36;18.20;99.90
20839;DHT22;10580;51.092;6.828;2022-08-19T01:18:57;18.20;99.90
20839;DHT22;10580;51.092;6.828;2022-08-19T01:25:14;18.10;99.90
20839;DHT22;10580;51.092;6.828;2022-08-19T01:35:04;18.00;99.90
20839;DHT22;10580;51.092;6.828;2022-08-19T01:37:57;17.90;99.90
20839;DHT22;10580;51.092;6.828;2022-08-19T01:40:39;17.90;99.90
20839;DHT22;10580;51.092;6.828;2022-08-19T01:43:07;17.90;99.90
20839;DHT22;10580;51.092;6.828;2022-08-19T01:45:39;17.90;99.90
20839;DHT22;10580;51.092;6.828;2022-08-19T01:48:28;17.90;99.90
20839;DHT22;10580;51.092;6.828;2022-08-19T01:51:13;17.80;99.90
20839;DHT22;10580;51.092;6.828;2022-08-19T01:54:07;17.80;99.90
20839;DHT22;10580;51.092;6.828;2022-08-19T01:57:16;17.80;99.90
20839;DHT22;10580;51.092;6.828;2022-08-19T02:00:25;17.80;99.90
20839;DHT22;10580;51.092;6.828;2022-08-19T02:03:20;17.70;99.90
20839;DHT22;10580;51.092;6.828;2022-08-19T02:06:04;17.70;99.90
20839;DHT22;10580;51.092;6.828;2022-08-19T02:09:05;17.70;99.90
20839;DHT22;10580;51.092;6.828;2022-08-19T02:11:37;17.70;99.90
20839;DHT22;10580;51.092;6.828;2022-08-19T02:14:19;17.70;99.90
20839;DHT22;10580;51.092;6.828;2022-08-19T02:20:10;17.70;99.90
20839;DHT22;10580;51.092;6.828;2022-08-19T02:25:26;17.60;99.90
20839;DHT22;10580;51.092;6.828;2022-08-19T02:28:11;17.50;99.90
20839;DHT22;10580;51.092;6.828;2022-08-19T02:31:19;17.50;99.90
20839;DHT22;10580;51.092;6.828;2022-08-19T02:34:09;17.50;99.90
20839;DHT22;10580;51.092;6.828;2022-08-19T02:36:59;17.50;99.90
20839;DHT22;10580;51.092;6.828;2022-08-19T02:42:29;17.50;99.90
20839;DHT22;10580;51.092;6.828;2022-08-19T02:48:28;17.50;99.90
20839;DHT22;10580;51.092;6.828;2022-08-19T02:51:19;17.50;99.90
20839;DHT22;10580;51.092;6.828;2022-08-19T02:53:58;17.40;99.90
20839;DHT22;10580;51.092;6.828;2022-08-19T02:56:38;17.40;99.90
20839;DHT22;10580;51.092;6.828;2022-08-19T03:01:59;17.40;99.90
20839;DHT22;10580;51.092;6.828;2022-08-19T03:05:24;17.40;99.90
20839;DHT22;10580;51.092;6.828;2022-08-19T03:08:08;17.30;99.90
20839;DHT22;10580;51.092;6.828;2022-08-19T03:10:50;17.30;99.90
20839;DHT22;10580;51.092;6.828;2022-08-19T03:13:30;17.30;99.90
20839;DHT22;10580;51.092;6.828;2022-08-19T03:16:20;17.30;99.90
20839;DHT22;10580;51.092;6.828;2022-08-19T03:18:56;17.30;99.90
20839;DHT22;10580;51.092;6.828;2022-08-19T03:21:26;17.30;99.90
20839;DHT22;10580;51.092;6.828;2022-08-19T03:24:08;17.30;99.90
20839;DHT22;10580;51.092;6.828;2022-08-19T03:27:08;17.40;99.90
20839;DHT22;10580;51.092;6.828;2022-08-19T03:29:47;17.40;99.90
20839;DHT22;10580;51.092;6.828;2022-08-19T03:32:29;17.40;99.90
20839;DHT22;10580;51.092;6.828;2022-08-19T03:35:33;17.40;99.90
20839;DHT22;10580;51.092;6.828;2022-08-19T03:38:38;17.30;99.90
20839;DHT22;10580;51.092;6.828;2022-08-19T03:44:34;17.40;99.90
20839;DHT22;10580;51.092;6.828;2022-08-19T03:47:27;17.40;99.90
20839;DHT22;10580;51.092;6.828;2022-08-19T03:50:09;17.40;99.90
20839;DHT22;10580;51.092;6.828;2022-08-19T03:52:49;17.40;99.90
20839;DHT22;10580;51.092;6.828;2022-08-19T03:58:39;17.40;99.90
20839;DHT22;10580;51.092;6.828;2022-08-19T04:01:43;17.40;99.90
20839;DHT22;10580;51.092;6.828;2022-08-19T04:04:28;17.50;99.90
20839;DHT22;10580;51.092;6.828;2022-08-19T04:07:27;17.50;99.90
20839;DHT22;10580;51.092;6.828;2022-08-19T04:10:22;17.50;99.90
20839;DHT22;10580;51.092;6.828;2022-08-19T04:12:59;17.60;99.90
20839;DHT22;10580;51.092;6.828;2022-08-19T04:18:42;17.60;99.90
20839;DHT22;10580;51.092;6.828;2022-08-19T04:21:30;17.60;99.90
20839;DHT22;10580;51.092;6.828;2022-08-19T04:24:10;17.60;99.90
20839;DHT22;10580;51.092;6.828;2022-08-19T04:27:05;17.60;99.90
20839;DHT22;10580;51.092;6.828;2022-08-19T04:29:48;17.60;99.90
20839;DHT22;10580;51.092;6.828;2022-08-19T04:32:42;17.60;99.90
20839;DHT22;10580;51.092;6.828;2022-08-19T04:35:21;17.60;99.90
20839;DHT22;10580;51.092;6.828;2022-08-19T04:38:22;17.60;99.90
20839;DHT22;10580;51.092;6.828;2022-08-19T04:40:58;17.50;99.90
20839;DHT22;10580;51.092;6.828;2022-08-19T04:50:11;17.50;99.90
20839;DHT22;10580;51.092;6.828;2022-08-19T04:52:44;17.50;99.90
20839;DHT22;10580;51.092;6.828;2022-08-19T04:58:40;17.50;99.90
20839;DHT22;10580;51.092;6.828;2022-08-19T05:01:12;17.50;99.90
20839;DHT22;10580;51.092;6.828;2022-08-19T05:03:55;17.50;99.90
20839;DHT22;10580;51.092;6.828;2022-08-19T05:06:48;17.50;99.90
20839;DHT22;10580;51.092;6.828;2022-08-19T05:09:37;17.70;99.90
20839;DHT22;10580;51.092;6.828;2022-08-19T05:12:11;17.80;99.90
20839;DHT22;10580;51.092;6.828;2022-08-19T05:14:49;18.00;99.90
20839;DHT22;10580;51.092;6.828;2022-08-19T05:20:43;18.10;99.90
20839;DHT22;10580;51.092;6.828;2022-08-19T05:23:37;18.10;99.90
20839;DHT22;10580;51.092;6.828;2022-08-19T05:26:26;18.00;99.90
20839;DHT22;10580;51.092;6.828;2022-08-19T05:29:25;18.10;99.90
20839;DHT22;10580;51.092;6.828;2022-08-19T05:31:58;18.00;99.90
20839;DHT22;10580;51.092;6.828;2022-08-19T05:34:41;18.10;99.90
20839;DHT22;10580;51.092;6.828;2022-08-19T05:43:48;18.90;99.90
20839;DHT22;10580;51.092;6.828;2022-08-19T05:46:28;19.20;99.90
20839;DHT22;10580;51.092;6.828;2022-08-19T05:48:57;19.50;99.90
20839;DHT22;10580;51.092;6.828;2022-08-19T05:51:39;19.90;99.90
20839;DHT22;10580;51.092;6.828;2022-08-19T05:54:05;20.40;99.90
20839;DHT22;10580;51.092;6.828;2022-08-19T05:56:34;20.80;99.90
20839;DHT22;10580;51.092;6.828;2022-08-19T05:59:07;21.20;99.90
20839;DHT22;10580;51.092;6.828;2022-08-19T06:01:36;21.40;99.90
20839;DHT22;10580;51.092;6.828;2022-08-19T06:04:02;21.70;99.90
20839;DHT22;10580;51.092;6.828;2022-08-19T06:06:32;22.10;99.90
20839;DHT22;10580;51.092;6.828;2022-08-19T06:09:03;22.50;99.90
20839;DHT22;10580;51.092;6.828;2022-08-19T06:11:45;22.40;99.90
20839;DHT22;10580;51.092;6.828;2022-08-19T06:14:21;22.70;99.90
20839;DHT22;10580;51.092;6.828;2022-08-19T06:16:48;22.80;99.90
20839;DHT22;10580;51.092;6.828;2022-08-19T06:19:18;22.90;99.90
20839;DHT22;10580;51.092;6.828;2022-08-19T06:21:46;22.30;99.90
20839;DHT22;10580;51.092;6.828;2022-08-19T06:24:15;22.60;99.90
20839;DHT22;10580;51.092;6.828;2022-08-19T06:26:46;23.00;99.90
20839;DHT22;10580;51.092;6.828;2022-08-19T06:29:13;22.60;99.90
20839;DHT22;10580;51.092;6.828;2022-08-19T06:31:48;22.40;99.90
20839;DHT22;10580;51.092;6.828;2022-08-19T06:34:17;22.40;99.90
20839;DHT22;10580;51.092;6.828;2022-08-19T06:36:46;22.30;99.90
20839;DHT22;10580;51.092;6.828;2022-08-19T06:39:15;22.20;99.90
20839;DHT22;10580;51.092;6.828;2022-08-19T06:41:44;22.30;99.90
20839;DHT22;10580;51.092;6.828;2022-08-19T06:44:10;22.10;99.90
20839;DHT22;10580;51.092;6.828;2022-08-19T06:46:37;22.00;99.90
20839;DHT22;10580;51.092;6.828;2022-08-19T06:49:04;21.80;99.90
20839;DHT22;10580;51.092;6.828;2022-08-19T06:51:30;21.30;99.90
20839;DHT22;10580;51.092;6.828;2022-08-19T06:53:58;21.30;99.90
20839;DHT22;10580;51.092;6.828;2022-08-19T06:56:27;21.20;99.90
20839;DHT22;10580;51.092;6.828;2022-08-19T06:59:08;21.00;99.90
20839;DHT22;10580;51.092;6.828;2022-08-19T07:01:35;21.00;99.90
20839;DHT22;10580;51.092;6.828;2022-08-19T07:04:03;20.70;99.90
20839;DHT22;10580;51.092;6.828;2022-08-19T07:06:29;20.80;99.90
20839;DHT22;10580;51.092;6.828;2022-08-19T07:08:57;20.90;99.90
20839;DHT22;10580;51.092;6.828;2022-08-19T07:11:24;21.00;99.90
20839;DHT22;10580;51.092;6.828;2022-08-19T07:13:49;21.00;99.90
20839;DHT22;10580;51.092;6.828;2022-08-19T07:16:18;20.80;99.90
20839;DHT22;10580;51.092;6.828;2022-08-19T07:18:48;20.70;99.90
20839;DHT22;10580;51.092;6.828;2022-08-19T07:21:20;20.60;99.90
20839;DHT22;10580;51.092;6.828;2022-08-19T07:23:47;20.50;99.90
20839;DHT22;10580;51.092;6.828;2022-08-19T07:26:26;20.30;99.90
20839;DHT22;10580;51.092;6.828;2022-08-19T07:28:52;20.30;99.90
20839;DHT22;10580;51.092;6.828;2022-08-19T07:31:21;20.30;99.90
20839;DHT22;10580;51.092;6.828;2022-08-19T07:33:49;20.40;99.90
20839;DHT22;10580;51.092;6.828;2022-08-19T07:36:18;20.50;99.90
20839;DHT22;10580;51.092;6.828;2022-08-19T07:38:47;20.60;99.90
20839;DHT22;10580;51.092;6.828;2022-08-19T07:41:17;21.10;99.90
20839;DHT22;10580;51.092;6.828;2022-08-19T07:43:42;21.20;99.90
20839;DHT22;10580;51.092;6.828;2022-08-19T07:46:10;21.80;99.90
20839;DHT22;10580;51.092;6.828;2022-08-19T07:48:36;22.40;99.90
20839;DHT22;10580;51.092;6.828;2022-08-19T07:51:04;22.70;99.90
20839;DHT22;10580;51.092;6.828;2022-08-19T07:53:31;22.70;99.90
20839;DHT22;10580;51.092;6.828;2022-08-19T07:55:58;22.60;99.90
20839;DHT22;10580;51.092;6.828;2022-08-19T07:58:31;22.00;99.90
20839;DHT22;10580;51.092;6.828;2022-08-19T08:00:58;22.10;99.90
20839;DHT22;10580;51.092;6.828;2022-08-19T08:03:24;21.70;99.90
20839;DHT22;10580;51.092;6.828;2022-08-19T08:06:11;21.70;99.90
20839;DHT22;10580;51.092;6.828;2022-08-19T08:08:57;21.70;99.90
20839;DHT22;10580;51.092;6.828;2022-08-19T08:11:55;21.80;99.90
20839;DHT22;10580;51.092;6.828;2022-08-19T08:14:35;22.50;99.90
20839;DHT22;10580;51.092;6.828;2022-08-19T08:17:02;23.80;99.90
20839;DHT22;10580;51.092;6.828;2022-08-19T08:19:29;25.30;99.90
20839;DHT22;10580;51.092;6.828;2022-08-19T08:21:57;26.60;57.60
20839;DHT22;10580;51.092;6.828;2022-08-19T08:24:24;27.10;1.00
20839;DHT22;10580;51.092;6.828;2022-08-19T08:26:49;27.00;1.00
20839;DHT22;10580;51.092;6.828;2022-08-19T08:29:15;28.40;1.00
20839;DHT22;10580;51.092;6.828;2022-08-19T08:31:42;29.40;1.00
20839;DHT22;10580;51.092;6.828;2022-08-19T08:34:08;28.20;1.00
20839;DHT22;10580;51.092;6.828;2022-08-19T08:36:44;28.90;1.00
20839;DHT22;10580;51.092;6.828;2022-08-19T08:39:16;29.90;1.00
20839;DHT22;10580;51.092;6.828;2022-08-19T08:41:54;30.00;99.90
20839;DHT22;10580;51.092;6.828;2022-08-19T08:44:29;28.90;1.00
20839;DHT22;10580;51.092;6.828;2022-08-19T08:47:01;26.70;1.00
20839;DHT22;10580;51.092;6.828;2022-08-19T08:52:07;25.60;1.00
20839;DHT22;10580;51.092;6.828;2022-08-19T08:54:39;25.40;1.00
20839;DHT22;10580;51.092;6.828;2022-08-19T08:57:14;25.30;1.00
20839;DHT22;10580;51.092;6.828;2022-08-19T08:59:43;24.80;3.90
20839;DHT22;10580;51.092;6.828;2022-08-19T09:02:17;24.90;1.00
20839;DHT22;10580;51.092;6.828;2022-08-19T09:04:43;25.00;6.60
20839;DHT22;10580;51.092;6.828;2022-08-19T09:09:51;24.60;1.00
20839;DHT22;10580;51.092;6.828;2022-08-19T09:12:25;25.00;17.30
20839;DHT22;10580;51.092;6.828;2022-08-19T09:15:03;25.00;1.00
20839;DHT22;10580;51.092;6.828;2022-08-19T09:17:31;25.40;1.00
20839;DHT22;10580;51.092;6.828;2022-08-19T09:22:30;25.40;1.00
20839;DHT22;10580;51.092;6.828;2022-08-19T09:24:56;25.30;1.00
20839;DHT22;10580;51.092;6.828;2022-08-19T09:27:24;25.40;1.00
20839;DHT22;10580;51.092;6.828;2022-08-19T09:29:51;25.60;1.00
20839;DHT22;10580;51.092;6.828;2022-08-19T09:32:17;26.00;1.00
20839;DHT22;10580;51.092;6.828;2022-08-19T09:34:43;26.30;1.00
20839;DHT22;10580;51.092;6.828;2022-08-19T09:37:09;25.80;1.00
20839;DHT22;10580;51.092;6.828;2022-08-19T09:39:35;25.70;1.00
20839;DHT22;10580;51.092;6.828;2022-08-19T09:42:01;25.90;1.00
20839;DHT22;10580;51.092;6.828;2022-08-19T09:44:28;26.40;1.00
20839;DHT22;10580;51.092;6.828;2022-08-19T09:46:54;26.80;1.00
20839;DHT22;10580;51.092;6.828;2022-08-19T09:49:21;26.80;1.00
20839;DHT22;10580;51.092;6.828;2022-08-19T09:51:49;27.20;1.00
20839;DHT22;10580;51.092;6.828;2022-08-19T09:54:15;27.10;99.90
20839;DHT22;10580;51.092;6.828;2022-08-19T09:56:40;27.10;99.90
20839;DHT22;10580;51.092;6.828;2022-08-19T09:59:06;27.90;99.90
20839;DHT22;10580;51.092;6.828;2022-08-19T10:01:32;28.10;1.00
20839;DHT22;10580;51.092;6.828;2022-08-19T10:04:00;27.90;99.90
20839;DHT22;10580;51.092;6.828;2022-08-19T10:06:27;27.60;26.50
20839;DHT22;10580;51.092;6.828;2022-08-19T10:08:55;27.40;1.00
20839;DHT22;10580;51.092;6.828;2022-08-19T10:11:21;27.70;99.90
20839;DHT22;10580;51.092;6.828;2022-08-19T10:13:47;27.30;99.90
20839;DHT22;10580;51.092;6.828;2022-08-19T10:16:17;27.20;99.90
20839;DHT22;10580;51.092;6.828;2022-08-19T10:18:45;27.30;99.90
20839;DHT22;10580;51.092;6.828;2022-08-19T10:21:17;26.90;99.90
20839;DHT22;10580;51.092;6.828;2022-08-19T10:23:45;27.00;1.00
20839;DHT22;10580;51.092;6.828;2022-08-19T10:26:17;26.90;99.90
20839;DHT22;10580;51.092;6.828;2022-08-19T10:28:43;26.90;1.00
20839;DHT22;10580;51.092;6.828;2022-08-19T10:31:11;26.80;99.90
20839;DHT22;10580;51.092;6.828;2022-08-19T10:33:38;26.50;1.00
20839;DHT22;10580;51.092;6.828;2022-08-19T10:36:13;26.40;1.00
20839;DHT22;10580;51.092;6.828;2022-08-19T10:38:40;26.50;1.00
20839;DHT22;10580;51.092;6.828;2022-08-19T10:41:11;26.60;1.00
20839;DHT22;10580;51.092;6.828;2022-08-19T10:43:37;26.60;1.00
20839;DHT22;10580;51.092;6.828;2022-08-19T10:46:05;26.60;1.00
20839;DHT22;10580;51.092;6.828;2022-08-19T10:48:31;26.50;1.00
20839;DHT22;10580;51.092;6.828;2022-08-19T10:50:57;26.90;1.00
20839;DHT22;10580;51.092;6.828;2022-08-19T10:53:42;27.00;99.90
20839;DHT22;10580;51.092;6.828;2022-08-19T10:56:07;26.70;99.90
20839;DHT22;10580;51.092;6.828;2022-08-19T10:58:51;27.10;99.90
20839;DHT22;10580;51.092;6.828;2022-08-19T11:01:17;27.30;1.00
20839;DHT22;10580;51.092;6.828;2022-08-19T11:03:43;27.40;99.90
20839;DHT22;10580;51.092;6.828;2022-08-19T11:06:10;27.80;1.00
20839;DHT22;10580;51.092;6.828;2022-08-19T11:08:36;27.60;99.90
20839;DHT22;10580;51.092;6.828;2022-08-19T11:11:05;27.60;99.90
20839;DHT22;10580;51.092;6.828;2022-08-19T11:13:33;27.50;1.00
20839;DHT22;10580;51.092;6.828;2022-08-19T11:16:23;27.70;1.00
20839;DHT22;10580;51.092;6.828;2022-08-19T11:18:52;28.00;99.90
20839;DHT22;10580;51.092;6.828;2022-08-19T11:21:23;27.70;1.00
20839;DHT22;10580;51.092;6.828;2022-08-19T11:23:51;27.80;99.90
20839;DHT22;10580;51.092;6.828;2022-08-19T11:26:18;28.10;1.00
20839;DHT22;10580;51.092;6.828;2022-08-19T11:28:44;28.20;1.00
20839;DHT22;10580;51.092;6.828;2022-08-19T11:31:24;28.00;99.90
20839;DHT22;10580;51.092;6.828;2022-08-19T11:33:50;28.20;99.90
20839;DHT22;10580;51.092;6.828;2022-08-19T11:36:17;28.50;99.90
20839;DHT22;10580;51.092;6.828;2022-08-19T11:38:44;28.70;99.90
20839;DHT22;10580;51.092;6.828;2022-08-19T11:41:10;28.30;99.90
20839;DHT22;10580;51.092;6.828;2022-08-19T11:43:36;28.50;1.00
20839;DHT22;10580;51.092;6.828;2022-08-19T11:46:11;28.40;99.90
20839;DHT22;10580;51.092;6.828;2022-08-19T11:48:38;27.90;1.00
20839;DHT22;10580;51.092;6.828;2022-08-19T11:51:07;27.90;1.00
20839;DHT22;10580;51.092;6.828;2022-08-19T11:53:34;28.00;1.00
20839;DHT22;10580;51.092;6.828;2022-08-19T11:56:00;28.30;1.00
20839;DHT22;10580;51.092;6.828;2022-08-19T11:58:26;28.60;1.00
20839;DHT22;10580;51.092;6.828;2022-08-19T12:00:52;28.50;99.90
20839;DHT22;10580;51.092;6.828;2022-08-19T12:03:18;28.30;99.90
20839;DHT22;10580;51.092;6.828;2022-08-19T12:05:45;27.80;1.00
20839;DHT22;10580;51.092;6.828;2022-08-19T12:08:11;27.40;1.00
20839;DHT22;10580;51.092;6.828;2022-08-19T12:10:38;27.80;99.90
20839;DHT22;10580;51.092;6.828;2022-08-19T12:13:05;28.20;99.90
20839;DHT22;10580;51.092;6.828;2022-08-19T12:15:38;28.50;1.00
20839;DHT22;10580;51.092;6.828;2022-08-19T12:18:06;28.50;1.00
20839;DHT22;10580;51.092;6.828;2022-08-19T12:20:35;28.80;1.00
20839;DHT22;10580;51.092;6.828;2022-08-19T12:23:01;28.40;1.00
20839;DHT22;10580;51.092;6.828;2022-08-19T12:25:26;28.10;1.00
20839;DHT22;10580;51.092;6.828;2022-08-19T12:27:52;27.90;99.90
20839;DHT22;10580;51.092;6.828;2022-08-19T12:30:17;27.90;28.90
20839;DHT22;10580;51.092;6.828;2022-08-19T12:32:43;28.00;1.00
20839;DHT22;10580;51.092;6.828;2022-08-19T12:35:09;28.00;1.00
20839;DHT22;10580;51.092;6.828;2022-08-19T12:37:36;28.10;99.90
20839;DHT22;10580;51.092;6.828;2022-08-19T12:40:02;27.90;99.90
20839;DHT22;10580;51.092;6.828;2022-08-19T12:42:28;28.40;99.90
20839;DHT22;10580;51.092;6.828;2022-08-19T12:44:55;28.60;1.00
20839;DHT22;10580;51.092;6.828;2022-08-19T12:47:20;28.70;1.00
20839;DHT22;10580;51.092;6.828;2022-08-19T12:49:46;28.80;1.00
20839;DHT22;10580;51.092;6.828;2022-08-19T12:52:13;29.00;18.00
20839;DHT22;10580;51.092;6.828;2022-08-19T12:54:42;29.40;1.00
20839;DHT22;10580;51.092;6.828;2022-08-19T12:57:09;29.70;70.30
20839;DHT22;10580;51.092;6.828;2022-08-19T12:59:37;29.40;99.90
20839;DHT22;10580;51.092;6.828;2022-08-19T13:02:07;29.80;1.00
20839;DHT22;10580;51.092;6.828;2022-08-19T13:04:34;30.10;99.90
20839;DHT22;10580;51.092;6.828;2022-08-19T13:07:02;30.30;1.00
20839;DHT22;10580;51.092;6.828;2022-08-19T13:09:28;30.40;99.90
20839;DHT22;10580;51.092;6.828;2022-08-19T13:11:53;30.70;99.90
20839;DHT22;10580;51.092;6.828;2022-08-19T13:14:19;29.90;1.00
20839;DHT22;10580;51.092;6.828;2022-08-19T13:16:45;29.50;1.00
20839;DHT22;10580;51.092;6.828;2022-08-19T13:19:11;30.10;99.90
20839;DHT22;10580;51.092;6.828;2022-08-19T13:21:38;30.10;5.40
20839;DHT22;10580;51.092;6.828;2022-08-19T13:24:04;30.60;17.30
20839;DHT22;10580;51.092;6.828;2022-08-19T13:26:29;30.30;1.00
20839;DHT22;10580;51.092;6.828;2022-08-19T13:28:55;29.90;1.00
20839;DHT22;10580;51.092;6.828;2022-08-19T13:31:41;30.00;1.00
20839;DHT22;10580;51.092;6.828;2022-08-19T13:34:35;30.00;1.00
20839;DHT22;10580;51.092;6.828;2022-08-19T13:37:03;29.90;1.00
20839;DHT22;10580;51.092;6.828;2022-08-19T13:39:30;29.90;1.00
20839;DHT22;10580;51.092;6.828;2022-08-19T13:41:57;29.90;1.00
20839;DHT22;10580;51.092;6.828;2022-08-19T13:44:26;29.50;1.00
20839;DHT22;10580;51.092;6.828;2022-08-19T13:46:59;29.50;1.00
20839;DHT22;10580;51.092;6.828;2022-08-19T13:49:28;29.30;1.00
20839;DHT22;10580;51.092;6.828;2022-08-19T13:51:56;29.40;1.00
20839;DHT22;10580;51.092;6.828;2022-08-19T13:54:22;29.60;99.90
20839;DHT22;10580;51.092;6.828;2022-08-19T13:56:47;29.50;99.90
20839;DHT22;10580;51.092;6.828;2022-08-19T13:59:13;29.40;1.00
20839;DHT22;10580;51.092;6.828;2022-08-19T14:01:40;29.30;1.00
20839;DHT22;10580;51.092;6.828;2022-08-19T14:04:06;29.30;99.30
20839;DHT22;10580;51.092;6.828;2022-08-19T14:06:32;29.20;1.00
20839;DHT22;10580;51.092;6.828;2022-08-19T14:08:58;29.00;1.00
20839;DHT22;10580;51.092;6.828;2022-08-19T14:11:24;28.60;1.00
20839;DHT22;10580;51.092;6.828;2022-08-19T14:13:50;28.50;1.00
20839;DHT22;10580;51.092;6.828;2022-08-19T14:16:16;28.60;1.00
20839;DHT22;10580;51.092;6.828;2022-08-19T14:18:42;28.50;1.00
20839;DHT22;10580;51.092;6.828;2022-08-19T14:21:15;28.80;1.00
20839;DHT22;10580;51.092;6.828;2022-08-19T14:23:40;29.00;1.00
20839;DHT22;10580;51.092;6.828;2022-08-19T14:26:12;29.20;1.00
20839;DHT22;10580;51.092;6.828;2022-08-19T14:28:39;29.40;1.00
20839;DHT22;10580;51.092;6.828;2022-08-19T14:31:10;29.20;1.00
20839;DHT22;10580;51.092;6.828;2022-08-19T14:33:36;29.30;1.00
20839;DHT22;10580;51.092;6.828;2022-08-19T14:36:02;29.20;1.00
20839;DHT22;10580;51.092;6.828;2022-08-19T14:38:28;29.40;1.00
20839;DHT22;10580;51.092;6.828;2022-08-19T14:43:53;29.40;1.00
20839;DHT22;10580;51.092;6.828;2022-08-19T14:46:21;29.30;1.00
20839;DHT22;10580;51.092;6.828;2022-08-19T14:48:48;29.40;1.00
20839;DHT22;10580;51.092;6.828;2022-08-19T14:51:14;29.30;1.00
20839;DHT22;10580;51.092;6.828;2022-08-19T14:53:40;29.40;1.00
20839;DHT22;10580;51.092;6.828;2022-08-19T14:56:11;29.40;1.00
20839;DHT22;10580;51.092;6.828;2022-08-19T14:58:38;29.50;1.00
20839;DHT22;10580;51.092;6.828;2022-08-19T15:01:05;29.40;99.90
20839;DHT22;10580;51.092;6.828;2022-08-19T15:03:31;29.20;99.90
20839;DHT22;10580;51.092;6.828;2022-08-19T15:05:58;29.10;99.90
20839;DHT22;10580;51.092;6.828;2022-08-19T15:08:27;29.30;1.00
20839;DHT22;10580;51.092;6.828;2022-08-19T15:10:53;29.00;99.90
20839;DHT22;10580;51.092;6.828;2022-08-19T15:13:19;29.00;99.90
20839;DHT22;10580;51.092;6.828;2022-08-19T15:15:44;29.20;99.90
20839;DHT22;10580;51.092;6.828;2022-08-19T15:18:10;29.10;99.90
20839;DHT22;10580;51.092;6.828;2022-08-19T15:20:38;29.20;99.90
20839;DHT22;10580;51.092;6.828;2022-08-19T15:23:04;29.10;99.90
20839;DHT22;10580;51.092;6.828;2022-08-19T15:25:30;29.00;99.90
20839;DHT22;10580;51.092;6.828;2022-08-19T15:27:56;29.10;1.00
20839;DHT22;10580;51.092;6.828;2022-08-19T15:30:25;29.00;1.00
20839;DHT22;10580;51.092;6.828;2022-08-19T15:32:53;29.00;1.00
20839;DHT22;10580;51.092;6.828;2022-08-19T15:35:20;28.90;1.00
20839;DHT22;10580;51.092;6.828;2022-08-19T15:37:55;28.30;1.00
20839;DHT22;10580;51.092;6.828;2022-08-19T15:40:22;27.80;99.90
20839;DHT22;10580;51.092;6.828;2022-08-19T15:42:48;27.40;1.00
20839;DHT22;10580;51.092;6.828;2022-08-19T15:45:14;27.20;99.90
20839;DHT22;10580;51.092;6.828;2022-08-19T15:47:40;27.10;99.90
20839;DHT22;10580;51.092;6.828;2022-08-19T15:50:13;26.90;99.90
20839;DHT22;10580;51.092;6.828;2022-08-19T15:52:54;26.60;1.00
20839;DHT22;10580;51.092;6.828;2022-08-19T15:55:23;26.60;99.90
20839;DHT22;10580;51.092;6.828;2022-08-19T15:57:49;26.60;1.00
20839;DHT22;10580;51.092;6.828;2022-08-19T16:00:33;26.50;1.00
20839;DHT22;10580;51.092;6.828;2022-08-19T16:03:17;26.40;99.90
20839;DHT22;10580;51.092;6.828;2022-08-19T16:06:01;26.40;1.00
20839;DHT22;10580;51.092;6.828;2022-08-19T16:08:45;26.30;99.90
20839;DHT22;10580;51.092;6.828;2022-08-19T16:11:17;26.10;36.90
20839;DHT22;10580;51.092;6.828;2022-08-19T16:13:46;26.00;1.00
20839;DHT22;10580;51.092;6.828;2022-08-19T16:16:16;25.90;95.10
20839;DHT22;10580;51.092;6.828;2022-08-19T16:18:41;25.80;1.00
20839;DHT22;10580;51.092;6.828;2022-08-19T16:21:07;25.70;99.90
20839;DHT22;10580;51.092;6.828;2022-08-19T16:23:34;25.70;99.90
20839;DHT22;10580;51.092;6.828;2022-08-19T16:26:00;25.70;99.90
20839;DHT22;10580;51.092;6.828;2022-08-19T16:28:26;25.60;99.90
20839;DHT22;10580;51.092;6.828;2022-08-19T16:30:52;25.60;99.90
20839;DHT22;10580;51.092;6.828;2022-08-19T16:33:18;25.60;99.90
20839;DHT22;10580;51.092;6.828;2022-08-19T16:35:43;25.60;99.90
20839;DHT22;10580;51.092;6.828;2022-08-19T16:38:09;25.50;99.90
20839;DHT22;10580;51.092;6.828;2022-08-19T16:40:35;25.60;1.00
20839;DHT22;10580;51.092;6.828;2022-08-19T16:43:01;25.50;1.00
20839;DHT22;10580;51.092;6.828;2022-08-19T16:45:28;25.40;1.00
20839;DHT22;10580;51.092;6.828;2022-08-19T16:47:53;25.40;1.00
20839;DHT22;10580;51.092;6.828;2022-08-19T16:50:22;25.40;1.00
20839;DHT22;10580;51.092;6.828;2022-08-19T16:52:48;25.30;1.00
20839;DHT22;10580;51.092;6.828;2022-08-19T16:55:13;25.20;1.00
20839;DHT22;10580;51.092;6.828;2022-08-19T16:57:39;25.20;1.00
20839;DHT22;10580;51.092;6.828;2022-08-19T17:00:06;25.10;1.00
20839;DHT22;10580;51.092;6.828;2022-08-19T17:02:38;25.00;1.00
20839;DHT22;10580;51.092;6.828;2022-08-19T17:05:06;24.90;1.00
20839;DHT22;10580;51.092;6.828;2022-08-19T17:07:32;24.90;1.00
20839;DHT22;10580;51.092;6.828;2022-08-19T17:09:58;24.80;1.00
20839;DHT22;10580;51.092;6.828;2022-08-19T17:12:24;24.80;1.00
20839;DHT22;10580;51.092;6.828;2022-08-19T17:14:50;24.70;1.00
20839;DHT22;10580;51.092;6.828;2022-08-19T17:17:16;24.70;1.00
20839;DHT22;10580;51.092;6.828;2022-08-19T17:19:41;24.70;1.00
20839;DHT22;10580;51.092;6.828;2022-08-19T17:22:08;24.70;1.00
20839;DHT22;10580;51.092;6.828;2022-08-19T17:24:34;24.70;1.00
20839;DHT22;10580;51.092;6.828;2022-08-19T17:27:00;24.70;1.00
20839;DHT22;10580;51.092;6.828;2022-08-19T17:29:26;24.70;1.00
20839;DHT22;10580;51.092;6.828;2022-08-19T17:31:52;24.70;1.00
20839;DHT22;10580;51.092;6.828;2022-08-19T17:34:18;24.70;1.00
20839;DHT22;10580;51.092;6.828;2022-08-19T17:36:44;24.70;1.00
20839;DHT22;10580;51.092;6.828;2022-08-19T17:39:09;24.70;1.00
20839;DHT22;10580;51.092;6.828;2022-08-19T17:41:35;24.70;1.00
20839;DHT22;10580;51.092;6.828;2022-08-19T17:44:02;24.70;1.00
20839;DHT22;10580;51.092;6.828;2022-08-19T17:46:28;24.70;1.00
20839;DHT22;10580;51.092;6.828;2022-08-19T17:48:55;24.70;1.00
20839;DHT22;10580;51.092;6.828;2022-08-19T17:53:56;24.60;1.00